AUA5LE EDDN-LOWW
Flight info
| Callsign | AUA5LE |
|---|---|
| Flight time | 0h 43m |
| Altitude | 29000 |
| Route | RODIS1G/28 RODIS L604 LAMSI DCT VENEN VENEN3W |
| Aircraft | A320/M-SDE3FGHIRWY/LB1 |
Departure
| Time | 2026-05-04 18:57 |
|---|---|
| Airport | Nuremberg Airport (EDDN) |
Arrival
| Time | 2026-05-04 19:40 |
|---|---|
| Airport | Vienna International Airport (LOWW) |
| Time | Latitude | Longitude | Altitude | Speed | Heading |
|---|---|---|---|---|---|
| 2026-05-04 18:24 | 49.49516 | 11.07790 | 1026 ft | 0 kts | 188° |
| 2026-05-04 18:31 | 49.49515 | 11.07790 | 1026 ft | 0 kts | 188° |
| 2026-05-04 18:32 | 49.49516 | 11.07790 | 1025 ft | 0 kts | 188° |
| 2026-05-04 18:46 | 49.49520 | 11.07791 | 1028 ft | 4 kts | 186° |
| 2026-05-04 18:46 | 49.49537 | 11.07792 | 1026 ft | 0 kts | 175° |
| 2026-05-04 18:47 | 49.49538 | 11.07792 | 1026 ft | 4 kts | 174° |
| 2026-05-04 18:47 | 49.49564 | 11.07782 | 1029 ft | 4 kts | 147° |
| 2026-05-04 18:47 | 49.49582 | 11.07754 | 1027 ft | 4 kts | 118° |
| 2026-05-04 18:47 | 49.49592 | 11.07716 | 1027 ft | 4 kts | 100° |
| 2026-05-04 18:48 | 49.49594 | 11.07698 | 1029 ft | 0 kts | 99° |
| 2026-05-04 18:51 | 49.49591 | 11.07727 | 1030 ft | 9 kts | 99° |
| 2026-05-04 18:51 | 49.49578 | 11.07854 | 1030 ft | 15 kts | 98° |
| 2026-05-04 18:51 | 49.49561 | 11.08035 | 1032 ft | 20 kts | 98° |
| 2026-05-04 18:51 | 49.49539 | 11.08262 | 1034 ft | 18 kts | 98° |
| 2026-05-04 18:52 | 49.49596 | 11.08362 | 1036 ft | 13 kts | 28° |
| 2026-05-04 18:52 | 49.49605 | 11.08524 | 1039 ft | 21 kts | 97° |
| 2026-05-04 18:52 | 49.49581 | 11.08785 | 1043 ft | 26 kts | 98° |
| 2026-05-04 18:52 | 49.49554 | 11.09061 | 1047 ft | 26 kts | 98° |
| 2026-05-04 18:53 | 49.49531 | 11.09311 | 1052 ft | 19 kts | 95° |
| 2026-05-04 18:53 | 49.49572 | 11.09447 | 1057 ft | 8 kts | 52° |
| 2026-05-04 18:53 | 49.49598 | 11.09499 | 1058 ft | 0 kts | 52° |
| 2026-05-04 18:54 | 49.49603 | 11.09509 | 1058 ft | 5 kts | 52° |
| 2026-05-04 18:54 | 49.49658 | 11.09573 | 1061 ft | 14 kts | 2° |
| 2026-05-04 18:54 | 49.49704 | 11.09483 | 1061 ft | 0 kts | 282° |
| 2026-05-04 18:56 | 49.49712 | 11.09418 | 1057 ft | 30 kts | 279° |
| 2026-05-04 18:56 | 49.49781 | 11.08699 | 1039 ft | 102 kts | 278° |
| 2026-05-04 18:56 | 49.49917 | 11.07311 | 1036 ft | 157 kts | 278° |
| 2026-05-04 18:56 | 49.50043 | 11.05629 | 1501 ft | 161 kts | 277° |
| 2026-05-04 18:57 | 49.50184 | 11.03891 | 2098 ft | 164 kts | 281° |
| 2026-05-04 18:57 | 49.50342 | 11.02084 | 2494 ft | 180 kts | 281° |
| 2026-05-04 18:57 | 49.50551 | 11.00068 | 2755 ft | 202 kts | 281° |
| 2026-05-04 18:57 | 49.50795 | 10.97811 | 3034 ft | 224 kts | 281° |
| 2026-05-04 18:58 | 49.51072 | 10.95317 | 3345 ft | 249 kts | 285° |
| 2026-05-04 18:58 | 49.51526 | 10.93661 | 3591 ft | 261 kts | 308° |
| 2026-05-04 18:58 | 49.52985 | 10.91992 | 4258 ft | 268 kts | 343° |
| 2026-05-04 18:58 | 49.55450 | 10.91586 | 5318 ft | 273 kts | 4° |
| 2026-05-04 18:59 | 49.57364 | 10.91822 | 6113 ft | 279 kts | 6° |
| 2026-05-04 18:59 | 49.59314 | 10.92147 | 6887 ft | 284 kts | 6° |
| 2026-05-04 18:59 | 49.60652 | 10.92348 | 7397 ft | 288 kts | 4° |
| 2026-05-04 18:59 | 49.63325 | 10.92751 | 8386 ft | 296 kts | 12° |
| 2026-05-04 19:00 | 49.65225 | 10.94044 | 9094 ft | 304 kts | 37° |
| 2026-05-04 19:00 | 49.66256 | 10.95578 | 9575 ft | 307 kts | 55° |
| 2026-05-04 19:00 | 49.67168 | 10.98491 | 10232 ft | 308 kts | 81° |
| 2026-05-04 19:00 | 49.67244 | 11.01822 | 10615 ft | 319 kts | 105° |
| 2026-05-04 19:01 | 49.66589 | 11.05201 | 10832 ft | 339 kts | 111° |
| 2026-05-04 19:01 | 49.65834 | 11.08711 | 11310 ft | 349 kts | 112° |
| 2026-05-04 19:01 | 49.64805 | 11.13518 | 12214 ft | 356 kts | 111° |
| 2026-05-04 19:01 | 49.64293 | 11.15933 | 12700 ft | 358 kts | 111° |
| 2026-05-04 19:02 | 49.63518 | 11.19604 | 13405 ft | 362 kts | 111° |
| 2026-05-04 19:02 | 49.62737 | 11.23332 | 14060 ft | 366 kts | 110° |
| 2026-05-04 19:02 | 49.61954 | 11.27073 | 14669 ft | 369 kts | 110° |
| 2026-05-04 19:02 | 49.61163 | 11.30862 | 15246 ft | 373 kts | 110° |
| 2026-05-04 19:03 | 49.60360 | 11.34699 | 15758 ft | 378 kts | 110° |
| 2026-05-04 19:03 | 49.59545 | 11.38576 | 15926 ft | 380 kts | 110° |
| 2026-05-04 19:03 | 49.58673 | 11.42435 | 16377 ft | 382 kts | 117° |
| 2026-05-04 19:03 | 49.57368 | 11.45929 | 16982 ft | 382 kts | 125° |
| 2026-05-04 19:04 | 49.55935 | 11.49400 | 17580 ft | 385 kts | 125° |
| 2026-05-04 19:04 | 49.54483 | 11.52887 | 18167 ft | 389 kts | 125° |
| 2026-05-04 19:04 | 49.53012 | 11.56402 | 18681 ft | 392 kts | 125° |
| 2026-05-04 19:04 | 49.51526 | 11.59948 | 19202 ft | 395 kts | 125° |
| 2026-05-04 19:05 | 49.50026 | 11.63526 | 19715 ft | 398 kts | 125° |
| 2026-05-04 19:05 | 49.48518 | 11.67119 | 20244 ft | 401 kts | 125° |
| 2026-05-04 19:05 | 49.46994 | 11.70748 | 20736 ft | 405 kts | 125° |
| 2026-05-04 19:05 | 49.45456 | 11.74409 | 21225 ft | 409 kts | 125° |
| 2026-05-04 19:06 | 49.43904 | 11.78101 | 21716 ft | 412 kts | 125° |
| 2026-05-04 19:06 | 49.42363 | 11.81760 | 22189 ft | 415 kts | 125° |
| 2026-05-04 19:06 | 49.40786 | 11.85497 | 22674 ft | 418 kts | 125° |
| 2026-05-04 19:06 | 49.39196 | 11.89263 | 23129 ft | 421 kts | 125° |
| 2026-05-04 19:07 | 49.37597 | 11.93043 | 23577 ft | 424 kts | 126° |
| 2026-05-04 19:07 | 49.35980 | 11.96858 | 23960 ft | 427 kts | 126° |
| 2026-05-04 19:07 | 49.34358 | 12.00678 | 24333 ft | 429 kts | 126° |
| 2026-05-04 19:07 | 49.32725 | 12.04512 | 24734 ft | 430 kts | 126° |
| 2026-05-04 19:08 | 49.31082 | 12.08363 | 25110 ft | 432 kts | 126° |
| 2026-05-04 19:08 | 49.29428 | 12.12235 | 25434 ft | 435 kts | 125° |
| 2026-05-04 19:08 | 49.27761 | 12.16131 | 25774 ft | 437 kts | 125° |
| 2026-05-04 19:08 | 49.26090 | 12.20035 | 26124 ft | 439 kts | 125° |
| 2026-05-04 19:09 | 49.24439 | 12.23895 | 26467 ft | 441 kts | 125° |
| 2026-05-04 19:09 | 49.22753 | 12.27831 | 26813 ft | 443 kts | 125° |
| 2026-05-04 19:09 | 49.21058 | 12.31778 | 27138 ft | 445 kts | 125° |
| 2026-05-04 19:09 | 49.19353 | 12.35736 | 27473 ft | 447 kts | 125° |
| 2026-05-04 19:10 | 49.17632 | 12.39722 | 27230 ft | 459 kts | 125° |
| 2026-05-04 19:10 | 49.15900 | 12.43783 | 27797 ft | 452 kts | 125° |
| 2026-05-04 19:10 | 49.14174 | 12.47799 | 28198 ft | 452 kts | 126° |
| 2026-05-04 19:10 | 49.12433 | 12.51815 | 28528 ft | 453 kts | 126° |
| 2026-05-04 19:11 | 49.10702 | 12.55785 | 28826 ft | 455 kts | 126° |
| 2026-05-04 19:11 | 49.08952 | 12.59792 | 28921 ft | 450 kts | 126° |
| 2026-05-04 19:11 | 49.05539 | 12.67624 | 28931 ft | 440 kts | 126° |
| 2026-05-04 19:12 | 49.00470 | 12.79219 | 28933 ft | 437 kts | 126° |
| 2026-05-04 19:13 | 48.97089 | 12.86914 | 28927 ft | 437 kts | 126° |
| 2026-05-04 19:13 | 48.93733 | 12.94560 | 28926 ft | 436 kts | 126° |
| 2026-05-04 19:14 | 48.90887 | 13.02725 | 28923 ft | 440 kts | 110° |
| 2026-05-04 19:14 | 48.89004 | 13.11337 | 28933 ft | 433 kts | 110° |
| 2026-05-04 19:15 | 48.87087 | 13.20092 | 28931 ft | 443 kts | 110° |
| 2026-05-04 19:15 | 48.85089 | 13.29161 | 28933 ft | 461 kts | 110° |
| 2026-05-04 19:16 | 48.83010 | 13.38553 | 28924 ft | 475 kts | 110° |
| 2026-05-04 19:16 | 48.80851 | 13.48142 | 28926 ft | 481 kts | 111° |
| 2026-05-04 19:17 | 48.78710 | 13.57712 | 28929 ft | 482 kts | 110° |
| 2026-05-04 19:17 | 48.76564 | 13.67362 | 28925 ft | 482 kts | 110° |
| 2026-05-04 19:18 | 48.74434 | 13.77003 | 28930 ft | 482 kts | 107° |
| 2026-05-04 19:18 | 48.73109 | 13.86928 | 28928 ft | 483 kts | 102° |
| 2026-05-04 19:19 | 48.71832 | 13.96920 | 28927 ft | 483 kts | 102° |
| 2026-05-04 19:19 | 48.70549 | 14.06925 | 28916 ft | 483 kts | 102° |
| 2026-05-04 19:20 | 48.69257 | 14.16929 | 28914 ft | 484 kts | 102° |
| 2026-05-04 19:20 | 48.67962 | 14.26865 | 28913 ft | 484 kts | 102° |
| 2026-05-04 19:21 | 48.66645 | 14.36892 | 28622 ft | 484 kts | 102° |
| 2026-05-04 19:21 | 48.65990 | 14.41865 | 28330 ft | 481 kts | 102° |
| 2026-05-04 19:21 | 48.65335 | 14.46817 | 28063 ft | 479 kts | 102° |
| 2026-05-04 19:21 | 48.64687 | 14.51692 | 27795 ft | 477 kts | 102° |
| 2026-05-04 19:22 | 48.64030 | 14.56610 | 27499 ft | 476 kts | 102° |
| 2026-05-04 19:22 | 48.63376 | 14.61503 | 26868 ft | 472 kts | 102° |
| 2026-05-04 19:22 | 48.62730 | 14.66344 | 26263 ft | 467 kts | 102° |
| 2026-05-04 19:22 | 48.62087 | 14.71143 | 25674 ft | 463 kts | 102° |
| 2026-05-04 19:23 | 48.61447 | 14.75894 | 25101 ft | 459 kts | 102° |
| 2026-05-04 19:23 | 48.60815 | 14.80557 | 24759 ft | 447 kts | 102° |
| 2026-05-04 19:23 | 48.60199 | 14.85083 | 24024 ft | 437 kts | 102° |
| 2026-05-04 19:23 | 48.59588 | 14.89537 | 23490 ft | 436 kts | 102° |
| 2026-05-04 19:24 | 48.58973 | 14.94012 | 22941 ft | 433 kts | 102° |
| 2026-05-04 19:24 | 48.58362 | 14.98456 | 22446 ft | 430 kts | 103° |
| 2026-05-04 19:24 | 48.57757 | 15.02863 | 21949 ft | 426 kts | 103° |
| 2026-05-04 19:24 | 48.57154 | 15.07236 | 21447 ft | 423 kts | 103° |
| 2026-05-04 19:25 | 48.56555 | 15.11555 | 20942 ft | 419 kts | 103° |
| 2026-05-04 19:25 | 48.55958 | 15.15856 | 20430 ft | 416 kts | 103° |
| 2026-05-04 19:25 | 48.55367 | 15.20111 | 19916 ft | 412 kts | 103° |
| 2026-05-04 19:25 | 48.54788 | 15.24263 | 19404 ft | 410 kts | 103° |
| 2026-05-04 19:26 | 48.54200 | 15.28461 | 18883 ft | 407 kts | 103° |
| 2026-05-04 19:26 | 48.53689 | 15.32637 | 18582 ft | 402 kts | 100° |
| 2026-05-04 19:26 | 48.53297 | 15.36817 | 18349 ft | 400 kts | 98° |
| 2026-05-04 19:26 | 48.52960 | 15.40983 | 18098 ft | 398 kts | 98° |
| 2026-05-04 19:27 | 48.52624 | 15.45118 | 17831 ft | 397 kts | 98° |
| 2026-05-04 19:27 | 48.52287 | 15.49235 | 17564 ft | 395 kts | 98° |
| 2026-05-04 19:27 | 48.51950 | 15.53323 | 17301 ft | 394 kts | 98° |
| 2026-05-04 19:27 | 48.51615 | 15.57363 | 16943 ft | 391 kts | 98° |
| 2026-05-04 19:28 | 48.51276 | 15.61418 | 16454 ft | 389 kts | 98° |
| 2026-05-04 19:28 | 48.50937 | 15.65455 | 15953 ft | 386 kts | 99° |
| 2026-05-04 19:28 | 48.50597 | 15.69473 | 15466 ft | 384 kts | 99° |
| 2026-05-04 19:28 | 48.50261 | 15.73462 | 14981 ft | 381 kts | 99° |
| 2026-05-04 19:29 | 48.49927 | 15.77415 | 14504 ft | 379 kts | 99° |
| 2026-05-04 19:29 | 48.49593 | 15.81353 | 14017 ft | 377 kts | 99° |
| 2026-05-04 19:29 | 48.49261 | 15.85251 | 13513 ft | 375 kts | 99° |
| 2026-05-04 19:29 | 48.48932 | 15.89097 | 13015 ft | 371 kts | 99° |
| 2026-05-04 19:30 | 48.48602 | 15.92941 | 12570 ft | 368 kts | 99° |
| 2026-05-04 19:30 | 48.48281 | 15.96657 | 12385 ft | 344 kts | 99° |
| 2026-05-04 19:30 | 48.47979 | 16.00147 | 11933 ft | 330 kts | 99° |
| 2026-05-04 19:30 | 48.47683 | 16.03546 | 11276 ft | 324 kts | 99° |
| 2026-05-04 19:31 | 48.47384 | 16.06936 | 10767 ft | 327 kts | 98° |
| 2026-05-04 19:31 | 48.47084 | 16.10321 | 10351 ft | 325 kts | 99° |
| 2026-05-04 19:31 | 48.46789 | 16.13663 | 10266 ft | 321 kts | 99° |
| 2026-05-04 19:31 | 48.46494 | 16.16984 | 9991 ft | 318 kts | 99° |
| 2026-05-04 19:32 | 48.46186 | 16.20271 | 9594 ft | 314 kts | 104° |
| 2026-05-04 19:32 | 48.45457 | 16.23261 | 9393 ft | 295 kts | 119° |
| 2026-05-04 19:32 | 48.44536 | 16.25964 | 8906 ft | 286 kts | 118° |
| 2026-05-04 19:32 | 48.43648 | 16.28528 | 8735 ft | 266 kts | 119° |
| 2026-05-04 19:33 | 48.42812 | 16.30924 | 8432 ft | 253 kts | 120° |
| 2026-05-04 19:33 | 48.41998 | 16.33240 | 7956 ft | 248 kts | 121° |
| 2026-05-04 19:33 | 48.41194 | 16.35518 | 7452 ft | 246 kts | 120° |
| 2026-05-04 19:33 | 48.40393 | 16.37781 | 6966 ft | 243 kts | 120° |
| 2026-05-04 19:34 | 48.39610 | 16.39990 | 6491 ft | 241 kts | 119° |
| 2026-05-04 19:34 | 48.38825 | 16.42210 | 5990 ft | 239 kts | 119° |
| 2026-05-04 19:34 | 48.38044 | 16.44420 | 5457 ft | 239 kts | 120° |
| 2026-05-04 19:34 | 48.37076 | 16.46392 | 5053 ft | 230 kts | 141° |
| 2026-05-04 19:35 | 48.35734 | 16.47663 | 4992 ft | 229 kts | 161° |
| 2026-05-04 19:35 | 48.34209 | 16.48363 | 4950 ft | 230 kts | 166° |
| 2026-05-04 19:35 | 48.32708 | 16.49003 | 4723 ft | 220 kts | 166° |
| 2026-05-04 19:35 | 48.31241 | 16.49628 | 4441 ft | 218 kts | 166° |
| 2026-05-04 19:36 | 48.29793 | 16.50246 | 4153 ft | 216 kts | 166° |
| 2026-05-04 19:36 | 48.28358 | 16.50857 | 3868 ft | 213 kts | 167° |
| 2026-05-04 19:36 | 48.26955 | 16.51455 | 3579 ft | 209 kts | 167° |
| 2026-05-04 19:36 | 48.25578 | 16.52043 | 3316 ft | 195 kts | 167° |
| 2026-05-04 19:37 | 48.24336 | 16.52574 | 3105 ft | 178 kts | 168° |
| 2026-05-04 19:37 | 48.23192 | 16.53060 | 2852 ft | 165 kts | 168° |
| 2026-05-04 19:37 | 48.22149 | 16.53505 | 2654 ft | 148 kts | 168° |
| 2026-05-04 19:37 | 48.21197 | 16.53908 | 2463 ft | 140 kts | 168° |
| 2026-05-04 19:38 | 48.20269 | 16.54301 | 2279 ft | 137 kts | 168° |
| 2026-05-04 19:38 | 48.19353 | 16.54689 | 2099 ft | 136 kts | 168° |
| 2026-05-04 19:38 | 48.18447 | 16.55073 | 1922 ft | 136 kts | 167° |
| 2026-05-04 19:38 | 48.17550 | 16.55454 | 1750 ft | 136 kts | 167° |
| 2026-05-04 19:39 | 48.16638 | 16.55836 | 1584 ft | 136 kts | 167° |
| 2026-05-04 19:39 | 48.15717 | 16.56240 | 1376 ft | 139 kts | 166° |
| 2026-05-04 19:39 | 48.14785 | 16.56634 | 1180 ft | 139 kts | 164° |
| 2026-05-04 19:39 | 48.13871 | 16.57018 | 1036 ft | 136 kts | 163° |
| 2026-05-04 19:40 | 48.12970 | 16.57406 | 850 ft | 133 kts | 162° |
| 2026-05-04 19:40 | 48.12069 | 16.57780 | 670 ft | 134 kts | 162° |
| 2026-05-04 19:40 | 48.11240 | 16.58134 | 614 ft | 97 kts | 165° |
| 2026-05-04 19:40 | 48.10863 | 16.58285 | 619 ft | 31 kts | 170° |
| 2026-05-04 19:41 | 48.10658 | 16.58266 | 609 ft | 29 kts | 193° |
| 2026-05-04 19:41 | 48.10556 | 16.58174 | 614 ft | 12 kts | 264° |
| 2026-05-04 19:41 | 48.10611 | 16.58115 | 614 ft | 10 kts | 348° |
| 2026-05-04 19:41 | 48.10679 | 16.58089 | 622 ft | 12 kts | 345° |
| 2026-05-04 19:42 | 48.10779 | 16.58047 | 613 ft | 18 kts | 344° |
| 2026-05-04 19:42 | 48.10913 | 16.57990 | 610 ft | 23 kts | 344° |
| 2026-05-04 19:42 | 48.11088 | 16.57917 | 612 ft | 29 kts | 345° |
| 2026-05-04 19:42 | 48.11303 | 16.57830 | 616 ft | 34 kts | 345° |
| 2026-05-04 19:43 | 48.11486 | 16.57724 | 613 ft | 22 kts | 307° |
| 2026-05-04 19:43 | 48.11540 | 16.57533 | 615 ft | 18 kts | 258° |
| 2026-05-04 19:43 | 48.11443 | 16.57417 | 621 ft | 18 kts | 227° |
| 2026-05-04 19:43 | 48.11456 | 16.57299 | 609 ft | 13 kts | 295° |
| 2026-05-04 19:44 | 48.11506 | 16.57144 | 620 ft | 21 kts | 296° |
| 2026-05-04 19:44 | 48.11568 | 16.56954 | 614 ft | 19 kts | 296° |
| 2026-05-04 19:44 | 48.11618 | 16.56860 | 612 ft | 7 kts | 9° |
| 2026-05-04 19:44 | 48.11657 | 16.56887 | 612 ft | 6 kts | 25° |
| 2026-05-04 19:45 | 48.11672 | 16.56898 | 610 ft | 1 kts | 25° |
| 2026-05-04 19:45 | 48.11674 | 16.56899 | 609 ft | 0 kts | 25° |